﻿ProjectID	SampleID	SampleType	TaxonomyID	UniqCodeType	UniqCode	SampleName	ScientificName	CommonName	CollectionYear	CollectionMonth	CollectionDay	SamplingTimeStartEnd	SamplingTimeAMPM	SamplingDuration	WeatherStartEnd	CollectionRegion	CollectionCountry	CollectionArea	CollectionLatitudeFrom	CollectionLatitudeTo	CollectionLongitudeFrom	CollectionLongitudeTo	Sex	TissueOrgan	TissueLipid	TissueMoist	Weight	WeightUnit	Length	LengthUnit	LengthType	GrowthStage	Age	Disease	TemperatureStartEnd	WaterTemperatureStartEnd	pH	DO	EC	EC_temp	Salinity	SS	WaterDepthM	TransparencyM	WaterColor	SedimentTemperatureStartEnd	SedimentDepthM	SedimentAppearance	SedimentColor	SedimentSurfaceColor	SedimentOdor	SedimentImpurities	SedimentMoistureOnSiteAnalysis	IgnitionLossOnSiteAnalysis	SoilDepthM	FlowRate	MeanPM10	MeanTotalSuspendedParticles	HumidityStartEnd	WindDirectionStartEnd	WindSpeedMSStartEnd	AmountOfCollectedAirStartEnd	Remarks	RegisterDate	UpdateDate
PRA000014	SAA000482	ST009	1535804			7-Jun	Paraprionospio	polychaete	2007	6						Asia	Japan	"Yodo River mouth, Osaka Bay"	34.59245556	34.67567222	135.3146028	135.3920111																																									Pooled	2016/11/4	2017/1/16
PRA000014	SAA000483	ST009	1535804			7-Apr	Paraprionospio	polychaete	2007	4						Asia	Japan	"Yodo River mouth, Osaka Bay"	34.59245556	34.67567222	135.3146028	135.3920111																																									Pooled	2016/11/4	2017/1/16
PRA000014	SAA000484	ST009	1535804			7-Oct	Paraprionospio	polychaete	2007	10						Asia	Japan	"Yodo River mouth, Osaka Bay"	34.59245556	34.67567222	135.3146028	135.3920111																																									Pooled	2016/11/4	2017/1/16
PRA000014	SAA000485	ST009	1535804			8-Apr	Paraprionospio	polychaete	2008	4						Asia	Japan	"Yodo River mouth, Osaka Bay"	34.59245556	34.67567222	135.3146028	135.3920111																																									Pooled	2016/11/4	2017/1/16
PRA000014	SAA000486	ST009	1535804			8-Jul	Paraprionospio	polychaete	2008	7						Asia	Japan	"Yodo River mouth, Osaka Bay"	34.59245556	34.67567222	135.3146028	135.3920111																																									Pooled	2016/11/4	2017/1/16
PRA000014	SAA000487	ST009	1535804			8-Oct	Paraprionospio	polychaete	2008	10						Asia	Japan	"Yodo River mouth, Osaka Bay"	34.59245556	34.67567222	135.3146028	135.3920111																																									Pooled	2016/11/4	2017/1/16
PRA000014	SAA000488	ST009	1535804			9-Jun	Paraprionospio	polychaete	2009	6						Asia	Japan	"Yodo River mouth, Osaka Bay"	34.59245556	34.67567222	135.3146028	135.3920111																																									Pooled	2016/11/4	2017/1/16
PRA000014	SAA000489	ST023				ST17	Sediment	"Marine sediment"	2007	4						Asia	Japan	"Yodo River mouth, Osaka Bay"	34.6		135.3838889																																NA/45.1913											2016/11/4	2019/7/17
PRA000014	SAA000490	ST023				ST18	Sediment	"Marine sediment"	2007	4						Asia	Japan	"Yodo River mouth, Osaka Bay"	34.66611111		135.3330556																																NA/36.6113											2016/11/4	2019/7/17
PRA000014	SAA000491	ST023				ST21	Sediment	"Marine sediment"	2007	4						Asia	Japan	"Yodo River mouth, Osaka Bay"	34.62388889		135.165																																NA/57.7128											2016/11/4	2019/7/17
PRA000031	SAA001948	ST023				st-01	Sediment	"Marine sediment"	2003	5	28					Asia	Japan	"Tokyo Bay"	35.61722222		139.9666667																										11.2																	2017/4/27	2019/7/17
PRA000031	SAA001949	ST023				st-02	Sediment	"Marine sediment"	2003	5	28					Asia	Japan	"Tokyo Bay"	35.5975		140.0344444																										10																	2017/4/27	2019/7/17
PRA000031	SAA001950	ST023				st-03	Sediment	"Marine sediment"	2003	5	28					Asia	Japan	"Tokyo Bay"	35.59		139.8466667																										10.6																	2017/4/27	2019/7/17
PRA000031	SAA001951	ST023				st-04	Sediment	"Marine sediment"	2003	5	28					Asia	Japan	"Tokyo Bay"	35.57944444		139.8897222																										12																	2017/4/27	2019/7/17
PRA000031	SAA001952	ST023				st-05	Sediment	"Marine sediment"	2003	5	28					Asia	Japan	"Tokyo Bay"	35.56444444		139.9430556																										16.7																	2017/4/27	2019/7/17
PRA000031	SAA001953	ST023				st-06	Sediment	"Marine sediment"	2003	5	28					Asia	Japan	"Tokyo Bay"	35.54805556		139.9930556																										15.6																	2017/4/27	2019/7/17
PRA000031	SAA001954	ST023				st-07	Sediment	"Marine sediment"	2003	5	28					Asia	Japan	"Tokyo Bay"	35.54777778		139.8263889																										17.8																	2017/4/27	2019/7/17
PRA000031	SAA001955	ST023				st-08	Sediment	"Marine sediment"	2003	5	28					Asia	Japan	"Tokyo Bay"	35.53583333		139.8580556																										19.4																	2017/4/27	2019/7/17
PRA000031	SAA001956	ST023				st-09	Sediment	"Marine sediment"	2003	5	28					Asia	Japan	"Tokyo Bay"	35.525		139.8952778																										22.2																	2017/4/27	2019/7/17
PRA000031	SAA001957	ST023				st-10	Sediment	"Marine sediment"	2003	5	28					Asia	Japan	"Tokyo Bay"	35.50333333		139.9530556																										18.9																	2017/4/27	2019/7/17
PRA000031	SAA001958	ST023				st-11	Sediment	"Marine sediment"	2003	5	28					Asia	Japan	"Tokyo Bay"	35.46583333		139.7775																										30																	2017/4/27	2019/7/17
PRA000031	SAA001959	ST023				st-12	Sediment	"Marine sediment"	2003	5	28					Asia	Japan	"Tokyo Bay"	35.46027778		139.8266667																										30																	2017/4/27	2019/7/17
PRA000031	SAA001960	ST023				st-13	Sediment	"Marine sediment"	2003	5	28					Asia	Japan	"Tokyo Bay"	35.45		139.8725																										22.2																	2017/4/27	2019/7/17
PRA000031	SAA001961	ST023				st-14	Sediment	"Marine sediment"	2003	5	28					Asia	Japan	"Tokyo Bay"	35.41583333		139.7183333																										36.4																	2017/4/27	2019/7/17
PRA000031	SAA001962	ST023				st-15	Sediment	"Marine sediment"	2003	5	28					Asia	Japan	"Tokyo Bay"	35.40833333		139.7613889																										17																	2017/4/27	2019/7/17
PRA000031	SAA001963	ST023				st-16	Sediment	"Marine sediment"	2003	5	28					Asia	Japan	"Tokyo Bay"	35.38555556		139.815																										14.2																	2017/4/27	2019/7/17
PRA000031	SAA001964	ST023				st-17	Sediment	"Marine sediment"	2003	5	28					Asia	Japan	"Tokyo Bay"	35.35277778		139.6880556																										43																	2017/4/27	2019/7/17
PRA000031	SAA001965	ST023				st-18	Sediment	"Marine sediment"	2003	5	28					Asia	Japan	"Tokyo Bay"	35.34861111		139.7252778																										23																	2017/4/27	2019/7/17
PRA000031	SAA001966	ST023				st-19	Sediment	"Marine sediment"	2003	5	28					Asia	Japan	"Tokyo Bay"	35.33888889		139.7752778																										14																	2017/4/27	2019/7/17
PRA000031	SAA001967	ST023				st-20	Sediment	"Marine sediment"	2003	5	28					Asia	Japan	"Tokyo Bay"	35.31027778		139.7080556																										49.4																	2017/4/27	2019/7/17
PRA000074	SAA004043	ST015				Akita_w1_2016	Water	"River water"	2016	10	11	2016-10-11T10:43			Fair	Asia	Japan	"Akita Canal (Akita City), Akita"	39.75083333		140.0586111														17	19.6	7.5	7	2,017			4		1.3	"Dark Yellowish green"																			2018/09/07	2018/09/07
PRA000074	SAA004047	ST015				Tokyo_w1_2016	Water	"River water"	2016	11	1	2016-11-01T09:55			Rain	Asia	Japan	"Mouth of Riv. Arakawa (Koto Ward), Tokyo"	35.64583333		139.8463889														12.2	18.2	7.5	5.1	3,100					0.8	"Greyish yellow green"																			2018/09/07	2018/09/07
PRA000074	SAA004048	ST015				Tokyo_w2_2016	Water	"River water"	2016	11	1	2016-11-01T12:10			Cloudy	Asia	Japan	"Mouth of Riv. Sumida (Minato Ward), Tokyo"	35.66		139.7705556														14.4	19.2	7.4	2.9	3,430					2.2	"Dark green"																			2018/09/07	2018/09/07
PRA000074	SAA004049	ST014				YokohamaCity_w3_2016	Water	"Sea water"	2016	10	13	2016-10-13T09:50			Cloudy	Asia	Japan	"Yokohama Port, Kanagawa"	35.45555556		139.6636111														19.5	21	8.1	7.7				8.5		2.3	Clear																			2018/9/7	2018/9/7
PRA000074	SAA004050	ST015				YokohamaCity_w1_2016	Water	"River water"	2016	10	11	2016-10-11T10:55			Cloudy	Asia	Japan	"Kamenoko-bashi Bridge, Riv. Tsurumi (Yokohama City), Kanagawa"	35.514622		139.607871														22	20.7	7.2	7				3.2			"Light yellow"																			2018/09/07	2018/09/07
PRA000074	SAA004051	ST015				KawasakiCity_w1_2016	Water	"River water"	2016	10	13	2016-10-13T14:20			Cloudy	Asia	Japan	"Mouth of Riv. Tama (Kawasaki City), Kanagawa"	35.53		139.7836111														17.7	21	8	8	3,400			5.9		1.9	"Dark greenish brown"																			2018/09/07	2018/09/07
PRA000074	SAA004055	ST015				Nagano_w2_2016	Water	"Lake water"	2016	11	2	2016-11-02T10:30			Cloudy	Asia	Japan	"Center of Lake Suwa, Nagano"	36.05		138.0861111														8.6	12	9.1	11	14.4			18		0.8	"Dark brown"																			2018/9/7	2018/9/7
PRA000074	SAA004056	ST014				Aichi_w2_2016	Water	"Sea water"	2016	10	25	2016-10-25T12:50			Rain	Asia	Japan	"Nagoya Port, West of Shiomi Wharf, Aichi"	35.07111111		136.8691667														13.8	23.7	7.5	4	4,250			11		3	"Light yellowish brown"																			2018/9/7	2018/9/7
PRA000074	SAA004057	ST014				NagoyaCity_w1_2016	Water	"River water"	2016	10	24	2016-10-24T13:45			Fair	Asia	Japan	"Minatoshinbashi Bridge, Riv. Hori (Nagoya City), Aichi"	35.09805556		136.8925														21.6	22.1	7.4	3	30			2.2			"Greenish brown"																			2018/09/07	2018/09/07
PRA000074	SAA004062	ST015				Kyoto_w2_2016	Water	"River water"	2016	10	28	2016-10-28T10:10			Cloudy	Asia	Japan	"Miyamae-bashi Bridge, Riv. Katsura (Kyoto City), Kyoto"	34.905		135.7125														20	19	7.4	8.8	16.8			2			Clear																			2018/09/07	2018/09/07
PRA000074	SAA004063	ST015				Osaka_w1_2016	Water	"River water"	2016	11	9	2016-11-09T08:58			"Cloudy with occasional rain"	Asia	Japan	"Mouth of Riv. Yamato (Sakai City), Osaka"	34.60833333		135.4325														14.6	18.1	7.8	11				10		0.8	"Light yellowish green"																			2018/09/07	2018/09/07
PRA000074	SAA004065	ST014				OsakaCity_w2_2016	Water	"Sea water"	2016	10	25	2016-10-25T08:55			Cloudy	Asia	Japan	"Osaka Port, Osaka"	34.65861111		135.4313889														18.5	22	8	5.6	3,030			1.8		2.9	"Light greyish yellow"																			2018/9/7	2018/9/7
PRA000074	SAA004068	ST014				Okayama_w2_2016	Water	"Sea water"	2016	10	26	2016-10-26T10:10			Cloudy	Asia	Japan	"Offshore of Mizushima, Okayama"	34.48055556		133.665														21.2	23	8.1	8.1				3		2.5	"Dark green"																			2018/9/7	2018/9/7
PRA000074	SAA004071	ST014				Kagawa_w1_2016	Water	"Sea water"	2016	10	4	2016-10-04T08:55			Cloudy	Asia	Japan	"Takamatsu Port, Kagawa"	34.34972222		134.0788889														27.6	27.3	6.6	4.2				5		1.8	"Greenish brown"																			2018/9/7	2018/9/7
PRA000074	SAA004075	ST014				FukuokaCity_w1_2016	Water	"Sea water"	2016	10	18	2016-10-18T08:50			Fair	Asia	Japan	"Hakata Bay, Fukuoka"	33.60833333		130.3297222														22.9	23.2	8.5	11.1	4,680			3		1.2	"Dark yellowish green"																			2018/9/7	2018/9/7
PRA000087	SAA004962	ST019				STP-1_Tokyo	Water	"Sewage treatment plant (STP) effluent"	2001	8						Asia	Japan	Tokyo	35.656784		139.508419																																											2019/4/12	2019/4/12
PRA000087	SAA004963	ST019				STP-2_Ibaraki	Water	"Sewage treatment plant (STP) effluent"	2001	10						Asia	Japan	Ibaraki	36.08735		140.215856																																											2019/4/12	2019/4/12
PRA000087	SAA004964	ST015				TamaRiv_No1	Water	"River water"	2001	8						Asia	Japan	"Hara-bashi bridge, Tama Riv."	35.643881		139.52497																																											2019/4/12	2019/4/12
PRA000087	SAA004965	ST015				TamaRiv_No2	Water	"River water"	2001	8						Asia	Japan	"Koremasa-bashi bridge, Tama Riv."	35.654158		139.487984																																											2019/4/12	2019/4/12
PRA000087	SAA004966	ST015				TamaRiv_No3	Water	"River water"	2001	8						Asia	Japan	"Tamagawa Ohashi bridge, Tama Riv."	35.555805		139.69595																																											2019/4/12	2019/4/12
PRA000087	SAA004967	ST015				Kasumigaura_St-7	Water	"Lake water"	2001	7						Asia	Japan	"Lake Kasumigaura"	35.983171	36.086075	140.21963	140.379563																																										2019/4/12	2019/4/12
PRA000087	SAA004968	ST015				Kasumigaura_St-8	Water	"Lake water"	2001	7						Asia	Japan	"Lake Kasumigaura"	35.983171	36.086075	140.21963	140.379563																																										2019/4/12	2019/4/12
PRA000087	SAA004969	ST015				Kasumigaura_St-10	Water	"Lake water"	2001	7						Asia	Japan	"Lake Kasumigaura"	35.983171	36.086075	140.21963	140.379563																																										2019/4/12	2019/4/12
PRA000087	SAA004970	ST015				Kasumigaura_St-13	Water	"Lake water"	2001	7						Asia	Japan	"Lake Kasumigaura"	35.983171	36.086075	140.21963	140.379563																																										2019/4/12	2019/4/12
PRA000087	SAA004971	ST015				Kasumigaura_St-14	Water	"Lake water"	2001	7						Asia	Japan	"Lake Kasumigaura"	35.983171	36.086075	140.21963	140.379563																																										2019/4/12	2019/4/12
